Time;durP1;ratioP1;P1;durP2;ratioP2;P2;SDS_P1;SDS_P2;PMS_P1;PMS_P2;Temp;Humidity;BMP_temperature;BMP_pressure;BME280_temperature;BME280_humidity;BME280_pressure;Samples;Min_cycle;Max_cycle;Signal;HPM_P1;HPM_P2
2024/02/21 00:00:17;;;;;;;0.50;0.50;;;;;;;3.97;92.91;97415.13;4971213;28;20513;-64
2024/02/21 00:02:44;;;;;;;0.50;0.50;;;;;;;5.22;94.13;97582.47;4986940;28;20145;-63
2024/02/21 00:05:10;;;;;;;0.50;0.50;;;;;;;5.51;94.18;97623.88;4986520;28;20050;-64
2024/02/21 00:07:37;;;;;;;0.50;0.50;;;;;;;5.47;93.98;97622.91;4987205;28;20050;-57
2024/02/21 00:10:05;;;;;;;0.50;0.50;;;;;;;5.35;94.96;97615.31;4986870;28;20434;-63
2024/02/21 00:12:31;;;;;;;0.43;0.43;;;;;;;5.11;94.85;97559.22;4987175;28;20445;-64
2024/02/21 00:14:58;;;;;;;0.50;0.50;;;;;;;5.49;95.38;97621.44;4986502;28;20436;-58
2024/02/21 00:17:26;;;;;;;0.50;0.50;;;;;;;5.64;93.66;97614.66;4978389;28;20058;-58
2024/02/21 00:19:53;;;;;;;0.50;0.50;;;;;;;5.69;92.17;97617.25;4966770;28;20129;-57
2024/02/21 00:22:19;;;;;;;0.50;0.50;;;;;;;2.56;92.20;97149.38;4966935;28;20059;-58
2024/02/21 00:24:46;;;;;;;0.50;0.50;;;;;;;4.85;98.27;97622.34;4967270;28;20047;-59
2024/02/21 00:27:13;;;;;;;0.50;0.50;;;;;;;4.27;100.00;97567.78;4968212;28;20378;-57
2024/02/21 00:29:40;;;;;;;0.50;0.50;;;;;;;5.11;99.38;97636.09;4967346;28;20520;-63
2024/02/21 00:32:06;;;;;;;0.50;0.50;;;;;;;4.63;98.20;97538.19;4966991;28;20055;-60
2024/02/21 00:34:33;;;;;;;0.50;0.50;;;;;;;4.61;97.84;97512.22;4967028;28;20057;-63
2024/02/21 00:37:00;;;;;;;0.40;0.40;;;;;;;5.44;97.78;97618.03;4967146;28;20062;-57
2024/02/21 00:39:27;;;;;;;0.50;0.50;;;;;;;5.50;97.09;97622.25;4965269;28;20051;-57
2024/02/21 00:41:53;;;;;;;0.50;0.50;;;;;;;5.62;97.25;97614.16;4966730;28;20930;-57
2024/02/21 00:44:20;;;;;;;0.50;0.50;;;;;;;5.76;94.86;97609.28;4966593;28;20498;-58
2024/02/21 00:46:47;;;;;;;0.50;0.50;;;;;;;5.22;93.04;97522.06;4966728;28;20066;-60
2024/02/21 00:49:14;;;;;;;0.50;0.50;;;;;;;5.75;92.90;97626.94;4966123;28;20154;-64
2024/02/21 00:51:40;;;;;;;0.50;0.50;;;;;;;5.65;93.18;97624.50;4966836;28;20059;-58
2024/02/21 00:54:07;;;;;;;0.50;0.50;;;;;;;5.01;93.56;97510.94;4965137;28;20554;-58
2024/02/21 00:56:34;;;;;;;0.50;0.50;;;;;;;5.50;92.51;97605.78;4966593;28;20061;-57
2024/02/21 00:59:01;;;;;;;0.40;0.40;;;;;;;5.27;92.72;97579.59;4966647;28;20058;-64
2024/02/21 01:01:28;;;;;;;0.50;0.50;;;;;;;5.30;94.33;97606.41;4964776;28;20051;-64
2024/02/21 01:03:55;;;;;;;0.50;0.50;;;;;;;5.29;93.79;97602.88;4966020;28;20133;-58
2024/02/21 01:06:22;;;;;;;0.50;0.50;;;;;;;5.38;93.62;97602.84;4966000;28;20130;-60
2024/02/21 01:08:49;;;;;;;0.50;0.50;;;;;;;5.15;94.61;97598.66;4966333;28;20147;-57
2024/02/21 01:11:16;;;;;;;0.50;0.50;;;;;;;4.82;94.14;97551.59;4966639;28;20066;-59
2024/02/21 01:13:44;;;;;;;0.50;0.50;;;;;;;5.02;93.75;97580.38;4965031;28;20415;-60
2024/02/21 01:16:10;;;;;;;0.50;0.50;;;;;;;4.60;94.19;97527.03;4965533;28;20113;-58
2024/02/21 01:18:39;;;;;;;0.40;0.40;;;;;;;4.85;95.33;97594.09;4966219;28;20057;-61
2024/02/21 01:21:07;;;;;;;0.40;0.40;;;;;;;4.98;96.24;97604.13;4966001;28;20090;-57
2024/02/21 01:23:35;;;;;;;0.40;0.40;;;;;;;5.05;95.36;97596.22;4965556;28;20058;-57
2024/02/21 01:26:08;;;;;;;0.40;0.40;;;;;;;4.90;95.61;97574.72;4966081;28;20054;-64
2024/02/21 01:28:35;;;;;;;0.50;0.50;;;;;;;4.83;95.21;97574.38;4966295;28;20093;-63
2024/02/21 01:31:03;;;;;;;0.50;0.50;;;;;;;5.14;94.35;97591.56;4965913;28;20084;-64
2024/02/21 01:33:34;;;;;;;0.47;0.47;;;;;;;5.19;93.76;97605.09;4965300;28;20053;-64
2024/02/21 01:36:02;;;;;;;0.40;0.40;;;;;;;5.19;93.53;97596.88;4965570;28;20065;-60
2024/02/21 01:38:29;;;;;;;0.50;0.50;;;;;;;5.22;93.41;97587.97;4965527;28;20173;-59
2024/02/21 01:40:56;;;;;;;0.50;0.50;;;;;;;5.14;94.58;97602.53;4964232;28;20069;-59
2024/02/21 01:43:23;;;;;;;0.40;0.40;;;;;;;4.96;95.47;97595.41;4965578;28;20058;-63
2024/02/21 01:45:54;;;;;;;0.50;0.50;;;;;;;4.95;97.00;97591.06;4965586;28;20504;-57
2024/02/21 01:48:24;;;;;;;0.47;0.47;;;;;;;4.89;97.78;97606.03;4965999;28;20051;-58
2024/02/21 01:50:54;;;;;;;0.40;0.40;;;;;;;4.41;96.41;97519.09;4965655;28;20429;-63
2024/02/21 01:53:25;;;;;;;0.40;0.40;;;;;;;5.00;96.08;97599.91;4965890;28;20061;-64
2024/02/21 01:55:53;;;;;;;0.50;0.50;;;;;;;4.99;96.55;97586.53;4965638;28;20082;-63
2024/02/21 01:58:19;;;;;;;0.40;0.40;;;;;;;4.88;96.94;97587.97;4965695;28;20078;-57
2024/02/21 02:00:48;;;;;;;0.50;0.50;;;;;;;4.97;97.33;97586.03;4965076;28;20058;-63
2024/02/21 02:03:17;;;;;;;0.40;0.40;;;;;;;4.69;97.11;97533.38;4965067;28;20105;-58
2024/02/21 02:05:49;;;;;;;0.50;0.50;;;;;;;5.01;98.01;97585.06;4964432;28;20062;-60
2024/02/21 02:08:18;;;;;;;0.45;0.45;;;;;;;4.78;97.74;97541.59;4965250;28;20054;-58
2024/02/21 02:10:48;;;;;;;0.40;0.40;;;;;;;5.12;98.36;97577.34;4963597;28;20928;-63
2024/02/21 02:13:15;;;;;;;0.50;0.50;;;;;;;4.78;98.20;97533.38;4963915;28;20080;-63
2024/02/21 02:15:45;;;;;;;0.40;0.40;;;;;;;5.10;98.45;97552.13;4963320;28;20141;-64
2024/02/21 02:18:12;;;;;;;0.40;0.40;;;;;;;5.33;97.90;97579.09;4964114;28;20523;-58
2024/02/21 02:20:40;;;;;;;0.40;0.40;;;;;;;5.37;97.04;97573.78;4730489;28;5002637;-57
2024/02/21 02:23:08;;;;;;;0.50;0.50;;;;;;;5.12;96.67;97516.94;4962186;28;20146;-59
2024/02/21 02:25:39;;;;;;;0.50;0.50;;;;;;;5.51;96.47;97564.25;4965320;28;20632;-57
2024/02/21 02:28:07;;;;;;;0.47;0.47;;;;;;;5.60;95.18;97572.47;4965665;28;20047;-57
2024/02/21 02:30:35;;;;;;;0.40;0.40;;;;;;;5.02;94.68;97498.03;4964983;28;20047;-64
2024/02/21 02:33:05;;;;;;;0.47;0.47;;;;;;;5.67;93.55;97568.09;4965001;28;20512;-64
2024/02/21 02:35:35;;;;;;;0.50;0.50;;;;;;;5.25;92.95;97504.97;4964451;28;20141;-63
2024/02/21 02:38:05;;;;;;;0.50;0.50;;;;;;;5.64;92.98;97573.44;4963194;28;20513;-58
2024/02/21 02:40:36;;;;;;;0.50;0.50;;;;;;;5.61;93.16;97563.09;4964747;28;20434;-58
2024/02/21 02:43:03;;;;;;;0.50;0.50;;;;;;;5.62;92.62;97567.44;4964584;28;20059;-63
2024/02/21 02:45:31;;;;;;;0.50;0.50;;;;;;;5.60;91.98;97564.22;4964720;28;20157;-58
2024/02/21 02:47:58;;;;;;;0.50;0.50;;;;;;;5.42;91.35;97532.41;4964647;28;20541;-57
2024/02/21 02:50:26;;;;;;;0.50;0.50;;;;;;;5.63;90.68;97577.28;4962574;28;20528;-64
2024/02/21 02:52:54;;;;;;;0.50;0.50;;;;;;;5.57;90.09;97582.16;4964386;28;20070;-63
2024/02/21 02:55:21;;;;;;;0.40;0.40;;;;;;;5.39;90.66;97582.50;4964224;28;20113;-63
2024/02/21 02:57:48;;;;;;;0.50;0.50;;;;;;;4.98;91.89;97521.78;4964498;28;20446;-64
2024/02/21 03:00:15;;;;;;;0.50;0.50;;;;;;;5.30;91.87;97579.75;4964423;28;20062;-58
2024/02/21 03:02:43;;;;;;;0.50;0.50;;;;;;;4.65;92.10;97503.00;4964941;28;20055;-60
2024/02/21 03:05:15;;;;;;;0.50;0.50;;;;;;;5.04;92.99;97581.69;4964228;28;20512;-63
2024/02/21 03:07:43;;;;;;;0.40;0.40;;;;;;;4.13;96.19;97528.69;4964391;28;20051;-64
2024/02/21 03:10:11;;;;;;;0.50;0.50;;;;;;;4.59;96.34;97553.69;4964073;28;20050;-58
2024/02/21 03:12:38;;;;;;;0.50;0.50;;;;;;;4.89;96.35;97590.38;4964369;28;20533;-63
2024/02/21 03:15:06;;;;;;;0.50;0.50;;;;;;;4.89;95.10;97589.56;4964174;28;20057;-57
2024/02/21 03:17:35;;;;;;;0.40;0.40;;;;;;;4.80;95.73;97592.31;4975450;28;20385;-63
2024/02/21 03:20:09;;;;;;;0.50;0.50;;;;;;;4.62;95.58;97585.16;4983070;28;20042;-64
2024/02/21 03:22:36;;;;;;;0.40;0.40;;;;;;;4.68;95.01;97588.56;4983282;28;20086;-58
2024/02/21 03:25:04;;;;;;;0.40;0.40;;;;;;;4.60;95.44;97587.41;4983388;28;20074;-57
2024/02/21 03:27:30;;;;;;;0.45;0.45;;;;;;;4.53;95.85;97585.16;4981266;28;20069;-63
2024/02/21 03:29:57;;;;;;;0.40;0.40;;;;;;;4.30;95.64;97580.84;4982606;28;20050;-63
2024/02/21 03:32:24;;;;;;;0.50;0.50;;;;;;;4.24;95.89;97582.13;4982881;28;20058;-63
2024/02/21 03:34:51;;;;;;;0.40;0.40;;;;;;;4.01;96.24;97575.09;4982995;28;20058;-60
2024/02/21 03:37:18;;;;;;;0.40;0.40;;;;;;;4.22;96.46;97592.59;4983198;28;20057;-57
2024/02/21 03:39:45;;;;;;;0.40;0.40;;;;;;;4.02;95.84;97586.84;4983457;28;20066;-63
2024/02/21 03:42:12;;;;;;;0.40;0.40;;;;;;;3.95;96.88;97573.59;4983380;28;20053;-57
2024/02/21 03:44:38;;;;;;;0.40;0.40;;;;;;;4.08;97.23;97580.09;4983595;28;20138;-64
2024/02/21 03:47:05;;;;;;;0.40;0.40;;;;;;;3.95;97.90;97583.75;4983532;28;20058;-57
2024/02/21 03:49:32;;;;;;;0.40;0.40;;;;;;;3.90;97.79;97584.72;4982788;28;20077;-57
2024/02/21 03:51:59;;;;;;;0.40;0.40;;;;;;;3.80;97.92;97587.72;4982027;28;20117;-64
2024/02/21 03:54:26;;;;;;;0.40;0.40;;;;;;;3.65;98.51;97544.25;4981772;28;20058;-60
2024/02/21 03:56:52;;;;;;;0.40;0.40;;;;;;;3.79;98.64;97593.50;4963258;28;20541;-58
2024/02/21 03:59:19;;;;;;;0.40;0.40;;;;;;;3.76;98.33;97589.44;4963130;28;20070;-63
2024/02/21 04:01:46;;;;;;;0.40;0.40;;;;;;;3.69;98.54;97600.03;4963858;28;20063;-58
2024/02/21 04:04:12;;;;;;;0.40;0.40;;;;;;;3.69;99.33;97588.28;4963194;28;20055;-63
2024/02/21 04:06:47;;;;;;;0.40;0.40;;;;;;;-1.14;97.61;96827.34;4962214;28;20055;-58
2024/02/21 04:09:14;;;;;;;0.40;0.40;;;;;;;2.98;98.17;97501.63;4963342;28;20513;-64
2024/02/21 04:11:40;;;;;;;0.40;0.40;;;;;;;3.64;97.57;97589.22;4963119;28;20051;-62
2024/02/21 04:14:07;;;;;;;0.30;0.30;;;;;;;3.56;96.25;97568.06;4963436;28;20053;-62
2024/02/21 04:16:35;;;;;;;0.40;0.40;;;;;;;3.65;96.43;97593.56;4963023;28;20050;-61
2024/02/21 04:19:02;;;;;;;0.40;0.40;;;;;;;3.58;97.60;97593.22;4961937;28;20625;-62
2024/02/21 04:21:29;;;;;;;0.40;0.40;;;;;;;3.57;98.14;97591.59;4963587;28;20595;-61
2024/02/21 04:23:56;;;;;;;0.40;0.40;;;;;;;3.40;97.89;97561.34;4963434;28;20058;-62
2024/02/21 04:26:22;;;;;;;0.40;0.40;;;;;;;3.58;97.29;97598.69;4963310;28;20047;-62
2024/02/21 04:28:49;;;;;;;0.40;0.40;;;;;;;3.58;97.57;97598.69;4963088;28;20059;-59
2024/02/21 04:31:16;;;;;;;0.40;0.40;;;;;;;3.58;97.60;97597.88;4961664;28;20062;-56
2024/02/21 04:33:43;;;;;;;0.50;0.50;;;;;;;3.57;95.70;97586.13;4963280;28;20050;-55
2024/02/21 04:36:10;;;;;;;0.40;0.40;;;;;;;3.04;95.64;97530.47;4963113;28;20482;-56
2024/02/21 04:38:38;;;;;;;0.40;0.40;;;;;;;3.50;95.58;97596.69;4963172;28;20486;-60
2024/02/21 04:41:05;;;;;;;0.40;0.40;;;;;;;2.92;96.11;97546.63;4961961;28;20051;-62
2024/02/21 04:43:32;;;;;;;0.40;0.40;;;;;;;3.51;95.38;97608.47;4967220;28;20441;-62
2024/02/21 04:46:00;;;;;;;0.40;0.40;;;;;;;3.38;95.42;97603.84;4966794;28;20133;-57
2024/02/21 04:48:27;;;;;;;0.40;0.40;;;;;;;2.83;95.60;97529.31;4967261;28;20051;-56
2024/02/21 04:50:53;;;;;;;0.40;0.40;;;;;;;3.37;94.89;97618.66;4965147;28;20534;-63
2024/02/21 04:53:20;;;;;;;0.40;0.40;;;;;;;3.21;95.09;97628.34;4967254;28;20564;-56
2024/02/21 04:55:47;;;;;;;0.40;0.40;;;;;;;2.45;94.71;97492.47;4966554;28;20051;-56
2024/02/21 04:58:14;;;;;;;0.40;0.40;;;;;;;3.05;95.82;97612.25;4966582;28;20097;-56
2024/02/21 05:00:41;;;;;;;0.38;0.38;;;;;;;3.10;95.37;97622.28;4966317;28;20134;-60
2024/02/21 05:03:08;;;;;;;0.40;0.40;;;;;;;3.04;94.37;97620.78;4964804;28;20062;-58
2024/02/21 05:05:35;;;;;;;0.32;0.32;;;;;;;3.00;94.13;97628.78;4966067;28;20100;-62
2024/02/21 05:08:03;;;;;;;0.40;0.40;;;;;;;3.00;93.97;97630.72;4964722;28;20055;-58
2024/02/21 05:10:29;;;;;;;0.40;0.40;;;;;;;2.95;94.22;97634.38;4965930;28;20501;-62
2024/02/21 05:12:57;;;;;;;0.40;0.40;;;;;;;3.00;94.07;97633.47;4966103;28;20057;-58
2024/02/21 05:15:24;;;;;;;0.40;0.40;;;;;;;2.96;94.59;97629.72;4966207;28;20059;-56
2024/02/21 05:17:50;;;;;;;0.38;0.38;;;;;;;2.88;96.19;97638.63;4976855;28;20058;-58
2024/02/21 05:20:17;;;;;;;0.38;0.38;;;;;;;2.91;96.15;97638.84;4985896;28;20050;-63
2024/02/21 05:22:44;;;;;;;0.30;0.30;;;;;;;2.79;96.11;97640.47;4986455;28;20058;-57
2024/02/21 05:25:11;;;;;;;0.40;0.40;;;;;;;2.87;96.30;97642.50;4985420;28;20128;-59
2024/02/21 05:27:38;;;;;;;0.40;0.40;;;;;;;2.80;96.12;97648.38;4985511;28;20161;-63
2024/02/21 05:30:06;;;;;;;0.40;0.40;;;;;;;2.85;96.63;97645.53;4984870;28;20509;-63
2024/02/21 05:32:33;;;;;;;0.30;0.30;;;;;;;2.94;96.46;97648.38;4985343;28;20050;-63
2024/02/21 05:35:00;;;;;;;0.40;0.40;;;;;;;2.62;96.67;97580.13;4985468;28;20090;-63
2024/02/21 05:37:27;;;;;;;0.40;0.40;;;;;;;2.69;95.37;97591.47;4985015;28;20058;-63
2024/02/21 05:39:54;;;;;;;0.40;0.40;;;;;;;3.06;94.86;97656.84;4970169;28;20053;-63
2024/02/21 05:42:21;;;;;;;0.30;0.30;;;;;;;3.11;94.82;97667.69;4964357;28;20074;-56
2024/02/21 05:44:47;;;;;;;0.40;0.40;;;;;;;3.14;94.31;97645.19;4965402;28;20441;-57
2024/02/21 05:47:15;;;;;;;0.40;0.40;;;;;;;2.88;93.47;97611.28;4965480;28;20058;-60
2024/02/21 05:49:42;;;;;;;0.35;0.35;;;;;;;3.43;93.12;97683.13;4964075;28;20055;-62
2024/02/21 05:52:09;;;;;;;0.40;0.40;;;;;;;3.55;92.41;97672.44;4965810;28;20153;-62
2024/02/21 05:54:39;;;;;;;0.40;0.40;;;;;;;3.68;91.96;97677.88;4963620;28;20164;-62
2024/02/21 05:57:07;;;;;;;0.40;0.40;;;;;;;3.35;91.25;97626.38;4964459;28;20051;-62
2024/02/21 05:59:36;;;;;;;0.40;0.40;;;;;;;3.80;90.44;97667.16;4937860;28;20572;-57
2024/02/21 06:02:04;;;;;;;0.40;0.40;;;;;;;3.03;89.20;97550.75;4963779;28;20054;-62
2024/02/21 06:04:31;;;;;;;0.40;0.40;;;;;;;3.73;89.96;97688.69;4963756;28;20484;-62
2024/02/21 06:06:58;;;;;;;0.40;0.40;;;;;;;3.72;90.38;97681.59;4964274;28;20423;-62
2024/02/21 06:09:25;;;;;;;0.40;0.40;;;;;;;3.79;90.48;97681.19;4964826;28;20046;-56
2024/02/21 06:11:51;;;;;;;0.40;0.40;;;;;;;3.50;90.40;97624.06;4964687;28;20541;-63
2024/02/21 06:14:19;;;;;;;0.40;0.40;;;;;;;3.46;89.61;97612.13;4965625;28;20074;-62
2024/02/21 06:16:46;;;;;;;0.40;0.40;;;;;;;3.99;90.47;97692.44;4967171;28;20615;-56
2024/02/21 06:19:13;;;;;;;0.40;0.40;;;;;;;4.14;88.75;97694.00;4984734;28;20073;-61
2024/02/21 06:21:40;;;;;;;0.50;0.50;;;;;;;3.98;88.54;97674.34;4984351;28;20050;-62
2024/02/21 06:24:07;;;;;;;0.40;0.40;;;;;;;3.96;89.09;97682.09;4982598;28;20141;-62
2024/02/21 06:26:34;;;;;;;0.40;0.40;;;;;;;4.23;89.46;97703.06;4983851;28;20524;-62
2024/02/21 06:29:01;;;;;;;0.40;0.40;;;;;;;3.93;88.54;97627.09;4982332;28;20141;-62
2024/02/21 06:31:29;;;;;;;0.43;0.43;;;;;;;4.26;88.75;97702.44;4982322;28;20078;-56
2024/02/21 06:33:56;;;;;;;0.43;0.43;;;;;;;3.77;88.92;97613.00;4983606;28;20057;-55
2024/02/21 06:36:23;;;;;;;0.47;0.47;;;;;;;4.44;89.47;97715.16;4982247;28;20042;-55
2024/02/21 06:38:50;;;;;;;0.50;0.50;;;;;;;4.29;89.39;97708.13;4984011;28;20054;-56
2024/02/21 06:41:18;;;;;;;0.50;0.50;;;;;;;4.33;89.82;97703.63;4984124;28;20813;-56
2024/02/21 06:43:46;;;;;;;0.47;0.47;;;;;;;4.11;90.77;97706.38;4964460;28;20580;-56
2024/02/21 06:46:28;;;;;;;0.45;0.45;;;;;;;4.19;90.27;97675.47;4962869;28;20661;-56
2024/02/21 06:48:56;;;;;;;0.40;0.40;;;;;;;4.44;89.76;97710.44;4964656;28;20117;-62
2024/02/21 06:51:24;;;;;;;0.50;0.50;;;;;;;4.44;90.23;97699.47;4965147;28;20169;-64
2024/02/21 06:53:52;;;;;;;0.40;0.40;;;;;;;4.53;89.37;97699.53;4964397;28;20146;-56
2024/02/21 06:56:19;;;;;;;0.45;0.45;;;;;;;4.13;89.44;97649.31;4963853;28;20780;-56
2024/02/21 06:58:46;;;;;;;0.50;0.50;;;;;;;4.44;89.27;97699.47;4964145;28;20061;-55
2024/02/21 07:01:13;;;;;;;0.45;0.45;;;;;;;4.20;89.58;97638.72;4977118;28;20540;-57
2024/02/21 07:03:40;;;;;;;0.50;0.50;;;;;;;4.68;89.35;97705.41;4974644;28;20059;-67
2024/02/21 07:06:06;;;;;;;0.50;0.50;;;;;;;4.68;89.87;97694.44;4981892;28;20064;-64
2024/02/21 07:08:34;;;;;;;0.50;0.50;;;;;;;4.53;90.15;97670.19;4976031;28;20062;-64
2024/02/21 07:11:00;;;;;;;0.40;0.40;;;;;;;4.04;89.30;97574.47;4976766;28;20535;-64
2024/02/21 07:13:27;;;;;;;0.50;0.50;;;;;;;4.98;89.20;97686.47;4982917;28;20486;-58
2024/02/21 07:15:54;;;;;;;0.50;0.50;;;;;;;5.02;88.72;97692.94;4982009;28;20138;-65
2024/02/21 07:18:21;;;;;;;0.50;0.50;;;;;;;5.15;88.01;97703.00;4982043;28;20093;-66
2024/02/21 07:20:48;;;;;;;0.50;0.50;;;;;;;5.30;87.55;97697.03;4993492;28;20058;-59
2024/02/21 07:23:14;;;;;;;0.50;0.50;;;;;;;4.87;86.65;97619.28;4981508;28;20050;-66
2024/02/21 07:25:41;;;;;;;0.50;0.50;;;;;;;5.06;85.91;97650.78;4968667;28;20046;-70
2024/02/21 07:28:08;;;;;;;0.50;0.50;;;;;;;5.43;85.34;97676.88;4989236;28;20061;-58
2024/02/21 07:30:35;;;;;;;0.50;0.50;;;;;;;5.61;85.46;97689.50;4966528;28;20437;-66
2024/02/21 07:33:03;;;;;;;0.50;0.50;;;;;;;5.74;85.17;97694.00;4972517;28;20141;-59
2024/02/21 07:35:29;;;;;;;0.50;0.50;;;;;;;5.56;85.86;97692.41;4980193;28;20050;-62
2024/02/21 07:37:56;;;;;;;0.50;0.50;;;;;;;5.65;86.79;97687.72;4968303;28;20061;-59
2024/02/21 07:40:23;;;;;;;0.50;0.50;;;;;;;5.47;86.16;97661.38;4961304;28;20059;-60
2024/02/21 07:42:50;;;;;;;0.40;0.40;;;;;;;4.90;90.82;97665.31;4974716;28;20134;-62
2024/02/21 07:45:23;;;;;;;0.45;0.45;;;;;;;5.15;90.93;97681.03;4971319;28;20097;-59
2024/02/21 07:47:50;;;;;;;0.50;0.50;;;;;;;5.46;89.79;97667.97;4971702;28;20133;-70
2024/02/21 07:50:17;;;;;;;0.50;0.50;;;;;;;5.71;88.84;97645.19;4971528;28;20069;-67
2024/02/21 07:52:44;;;;;;;0.50;0.50;;;;;;;6.25;86.61;97688.50;4978748;28;20137;-57
2024/02/21 07:55:11;;;;;;;0.55;0.55;;;;;;;6.45;85.52;97681.50;4976783;28;20050;-67
2024/02/21 07:57:38;;;;;;;0.60;0.60;;;;;;;6.17;84.13;97576.56;4981319;28;20612;-61
2024/02/21 08:00:06;;;;;;;0.60;0.60;;;;;;;6.76;82.40;97622.28;4978397;28;20125;-65
2024/02/21 08:02:32;;;;;;;0.60;0.60;;;;;;;7.30;80.88;97670.91;4963871;28;20053;-60
2024/02/21 08:04:59;;;;;;;0.60;0.60;;;;;;;7.59;79.75;97668.13;4974490;28;20136;-68
2024/02/21 08:07:28;;;;;;;0.60;0.60;;;;;;;7.77;79.32;97651.44;4973823;28;20153;-63
2024/02/21 08:09:56;;;;;;;0.60;0.60;;;;;;;8.18;78.88;97662.41;4980397;28;20097;-59
2024/02/21 08:12:22;;;;;;;0.70;0.70;;;;;;;8.47;77.36;97665.06;4978788;28;20045;-66
2024/02/21 08:14:49;;;;;;;0.70;0.70;;;;;;;8.59;74.79;97659.56;4963604;28;20174;-68
2024/02/21 08:17:16;;;;;;;0.70;0.70;;;;;;;8.22;74.56;97541.94;4970296;28;20073;-66
2024/02/21 08:19:43;;;;;;;0.70;0.70;;;;;;;6.66;73.79;97253.81;4971125;28;20490;-64
2024/02/21 08:22:09;;;;;;;0.60;0.60;;;;;;;9.36;72.67;97651.06;4983459;28;20060;-57
2024/02/21 08:24:36;;;;;;;0.80;0.80;;;;;;;9.49;72.33;97613.94;4974971;28;20061;-56
2024/02/21 08:27:03;;;;;;;0.70;0.70;;;;;;;9.89;70.91;97644.38;4984306;28;20513;-57
2024/02/21 08:29:30;;;;;;;0.80;0.80;;;;;;;10.10;71.04;97643.03;4978430;28;20061;-68
2024/02/21 08:31:57;;;;;;;0.80;0.80;;;;;;;9.46;68.57;97501.28;4982499;28;20038;-58
2024/02/21 08:34:24;;;;;;;0.80;0.80;;;;;;;10.36;68.25;97610.16;4975441;28;20050;-67
2024/02/21 08:36:51;;;;;;;0.80;0.80;;;;;;;10.59;67.06;97619.47;4979069;28;20489;-71
2024/02/21 08:39:17;;;;;;;0.80;0.80;;;;;;;10.80;67.08;97641.38;4967671;28;20054;-56
2024/02/21 08:41:44;;;;;;;0.80;0.80;;;;;;;10.21;66.33;97546.47;4980116;28;20532;-59
2024/02/21 08:44:26;;;;;;;0.90;0.90;;;;;;;11.01;65.18;97647.47;4985756;28;20148;-69
2024/02/21 08:46:54;;;;;;;0.90;0.90;;;;;;;11.16;64.82;97609.81;4985742;28;20058;-72
2024/02/21 08:49:21;;;;;;;0.98;0.98;;;;;;;11.55;62.61;97642.03;4984963;28;20050;-57
2024/02/21 08:51:48;;;;;;;0.90;0.90;;;;;;;11.68;60.07;97644.34;4984403;28;20054;-64
2024/02/21 08:54:15;;;;;;;0.90;0.90;;;;;;;12.01;59.29;97657.75;4984172;28;20054;-59
2024/02/21 08:56:42;;;;;;;1.00;1.00;;;;;;;12.29;57.78;97647.22;4983529;28;20132;-60
2024/02/21 08:59:09;;;;;;;1.00;1.00;;;;;;;12.39;55.32;97651.38;4984790;28;20057;-65
2024/02/21 09:01:36;;;;;;;0.90;0.90;;;;;;;12.20;54.91;97652.22;4984860;28;20129;-71
2024/02/21 09:04:03;;;;;;;0.90;0.90;;;;;;;11.70;55.53;97585.69;4985125;28;20381;-57
2024/02/21 09:06:33;;;;;;;1.00;1.00;;;;;;;12.30;55.59;97636.94;4985459;28;20084;-70
2024/02/21 09:08:59;;;;;;;0.90;0.90;;;;;;;12.71;53.96;97659.16;4984264;28;20069;-57
2024/02/21 09:11:27;;;;;;;1.00;1.00;;;;;;;12.82;52.11;97649.03;4983838;28;20116;-59
2024/02/21 09:13:55;;;;;;;1.00;1.00;;;;;;;12.83;51.33;97650.66;4984653;28;20069;-72
2024/02/21 09:16:22;;;;;;;1.10;1.10;;;;;;;13.11;51.66;97645.59;4977807;28;20046;-57
2024/02/21 09:18:50;;;;;;;1.05;1.05;;;;;;;13.49;49.67;97642.63;4981810;28;20054;-70
2024/02/21 09:21:17;;;;;;;1.00;1.00;;;;;;;13.78;49.15;97641.06;4981565;28;20057;-66
2024/02/21 09:23:45;;;;;;;1.10;1.10;;;;;;;13.99;47.86;97635.78;4979804;28;20061;-65
2024/02/21 09:26:15;;;;;;;1.20;1.20;;;;;;;14.15;48.01;97632.78;4979173;28;20050;-68
2024/02/21 09:28:46;;;;;;;1.40;1.40;;;;;;;14.16;47.75;97606.53;4975526;28;20585;-57
2024/02/21 09:31:13;;;;;;;1.10;1.10;;;;;;;14.19;46.09;97628.06;4975850;28;20042;-61
2024/02/21 09:33:40;;;;;;;1.08;1.08;;;;;;;14.26;44.46;97617.03;4968213;28;20141;-56
2024/02/21 09:36:06;;;;;;;1.17;1.17;;;;;;;14.26;45.24;97600.31;4972311;28;20055;-56
2024/02/21 09:38:33;;;;;;;1.20;1.20;;;;;;;13.39;45.12;97478.28;4970749;28;20484;-69
2024/02/21 09:41:17;;;;;;;1.20;1.20;;;;;;;14.47;44.17;97620.06;4978053;28;20050;-64
2024/02/21 09:43:53;;;;;;;1.20;1.20;;;;;;;14.49;42.45;97570.31;4978136;28;20061;-57
2024/02/21 09:46:27;;;;;;;1.27;1.27;;;;;;;12.61;40.88;97217.88;4979479;28;20069;-56
2024/02/21 09:49:28;;;;;;;1.27;1.27;;;;;;;15.26;40.83;97615.66;4970719;28;20180;-69
2024/02/21 09:51:57;;;;;;;1.23;1.23;;;;;;;15.22;41.00;97602.84;4968044;28;20065;-58
2024/02/21 09:54:24;;;;;;;1.20;1.20;;;;;;;15.04;41.37;97597.13;4974752;28;20058;-59
2024/02/21 09:56:51;;;;;;;1.08;1.08;;;;;;;14.03;41.14;97607.97;4982165;28;20052;-59
2024/02/21 09:59:19;;;;;;;1.10;1.10;;;;;;;14.12;40.98;97594.53;4985478;28;20054;-64
2024/02/21 10:01:48;;;;;;;1.17;1.17;;;;;;;13.42;41.43;97600.78;4984898;28;20489;-62
2024/02/21 10:04:15;;;;;;;1.10;1.10;;;;;;;12.99;42.22;97608.81;4984708;28;20076;-56
2024/02/21 10:06:43;;;;;;;1.00;1.00;;;;;;;12.14;41.61;97531.44;4985043;28;20376;-61
2024/02/21 10:09:21;;;;;;;1.10;1.10;;;;;;;12.83;42.59;97600.59;4983814;28;20101;-62
2024/02/21 10:11:47;;;;;;;1.20;1.20;;;;;;;12.95;41.99;97586.50;4983866;28;20641;-66
2024/02/21 10:14:15;;;;;;;1.10;1.10;;;;;;;13.26;45.61;97586.22;4982727;28;20061;-55
2024/02/21 10:16:42;;;;;;;0.98;0.98;;;;;;;13.57;44.57;97560.84;4984615;28;20069;-56
2024/02/21 10:19:21;;;;;;;1.10;1.10;;;;;;;13.43;43.05;97557.06;4985066;28;20155;-60
2024/02/21 10:22:07;;;;;;;1.10;1.10;;;;;;;13.91;44.36;97577.59;4984084;28;20058;-58
2024/02/21 10:24:37;;;;;;;1.25;1.25;;;;;;;13.79;43.16;97524.91;4985303;28;20119;-56
2024/02/21 10:27:08;;;;;;;1.17;1.17;;;;;;;13.50;42.41;97463.31;4984378;28;20054;-66
2024/02/21 10:29:35;;;;;;;1.17;1.17;;;;;;;13.73;40.43;97559.84;4990895;28;20600;-56
2024/02/21 10:32:07;;;;;;;1.10;1.10;;;;;;;12.97;42.14;97489.59;4980868;28;20053;-59
2024/02/21 10:34:34;;;;;;;1.02;1.02;;;;;;;13.94;41.68;97555.31;4974048;28;20082;-67
2024/02/21 10:37:08;;;;;;;1.25;1.25;;;;;;;14.24;41.27;97530.22;4976903;28;20085;-65
2024/02/21 10:39:40;;;;;;;1.00;1.00;;;;;;;14.19;42.35;97550.06;4971331;28;20133;-67
2024/02/21 10:42:10;;;;;;;1.20;1.20;;;;;;;13.96;43.04;97563.31;4964387;28;20161;-58
2024/02/21 10:44:39;;;;;;;1.00;1.00;;;;;;;13.63;42.66;97539.84;4969461;28;20053;-67
2024/02/21 10:47:10;;;;;;;1.20;1.20;;;;;;;13.84;42.90;97538.50;4983881;28;20056;-67
2024/02/21 10:49:40;;;;;;;1.17;1.17;;;;;;;14.10;42.92;97541.97;4979802;28;20047;-67
2024/02/21 10:52:17;;;;;;;1.10;1.10;;;;;;;14.36;42.27;97524.38;4964245;28;20085;-69
2024/02/21 10:55:03;;;;;;;1.30;1.30;;;;;;;14.43;41.63;97493.81;4970703;28;20406;-68
2024/02/21 10:57:31;;;;;;;1.20;1.20;;;;;;;14.88;40.68;97521.25;4983428;28;20577;-68
2024/02/21 10:59:59;;;;;;;1.25;1.25;;;;;;;15.05;41.02;97515.00;4983574;28;20046;-57
2024/02/21 11:02:30;;;;;;;1.10;1.10;;;;;;;14.52;42.46;97516.56;4982833;28;20517;-67
2024/02/21 11:04:58;;;;;;;1.23;1.23;;;;;;;13.80;44.49;97465.25;4982948;28;20509;-70
2024/02/21 11:07:26;;;;;;;1.20;1.20;;;;;;;13.07;45.45;97366.59;4982962;28;20050;-64
2024/02/21 11:09:57;;;;;;;1.10;1.10;;;;;;;13.74;45.61;97500.19;4983124;28;20418;-65
2024/02/21 11:12:24;;;;;;;1.00;1.00;;;;;;;13.75;46.15;97510.97;4981977;28;20061;-62
2024/02/21 11:14:51;;;;;;;1.10;1.10;;;;;;;13.39;46.71;97511.66;4982239;28;20077;-57
2024/02/21 11:17:19;;;;;;;1.10;1.10;;;;;;;13.54;46.46;97505.94;4981881;28;20050;-58
2024/02/21 11:19:47;;;;;;;1.20;1.20;;;;;;;13.53;46.63;97507.09;4983403;28;20576;-60
2024/02/21 11:22:19;;;;;;;1.20;1.20;;;;;;;13.50;46.46;97490.34;4981586;28;20521;-60
2024/02/21 11:24:46;;;;;;;1.10;1.10;;;;;;;13.69;47.46;97485.41;4982289;28;20062;-60
2024/02/21 11:27:20;;;;;;;1.17;1.17;;;;;;;13.32;46.87;97453.97;4982799;28;20058;-64
2024/02/21 11:29:48;;;;;;;1.00;1.00;;;;;;;13.76;46.67;97503.38;4982936;28;20058;-59
2024/02/21 11:32:21;;;;;;;1.20;1.20;;;;;;;14.08;46.04;97468.34;4982860;28;20619;-63
2024/02/21 11:35:04;;;;;;;1.20;1.20;;;;;;;14.76;44.95;97572.56;4980961;28;20169;-61
2024/02/21 11:37:38;;;;;;;1.15;1.15;;;;;;;15.06;44.68;97488.72;4982719;28;20054;-61
2024/02/21 11:40:09;;;;;;;1.20;1.20;;;;;;;14.80;45.24;97497.28;4982308;28;20055;-62
2024/02/21 11:42:37;;;;;;;1.20;1.20;;;;;;;14.81;45.44;97490.53;4982394;28;20054;-62